createdAt,value
2017-12-08T01:37:40.757Z,1002.06
2017-12-08T01:37:41.333Z,1002.06
2017-12-08T01:37:41.929Z,1002.09
2017-12-08T01:37:42.530Z,1002.04
2017-12-08T01:37:43.130Z,1002.05
2017-12-08T01:37:43.729Z,1002.07
2017-12-08T01:37:44.327Z,1002.08
2017-12-08T01:38:38.385Z,1002.05
2017-12-08T01:38:38.982Z,1002.04
2017-12-08T01:38:39.582Z,1002.07
2017-12-08T01:38:40.182Z,1002.03
2017-12-08T01:38:40.785Z,1002.02
2017-12-08T01:38:41.382Z,1002.05
2017-12-08T01:38:41.981Z,1002.05
2017-12-08T01:39:36.039Z,1002.10
2017-12-08T01:39:36.634Z,1002.05
2017-12-08T01:39:37.235Z,1002.03
2017-12-08T01:39:37.834Z,1002.05
2017-12-08T01:39:38.434Z,1002.03
2017-12-08T01:39:39.034Z,1002.05
2017-12-08T01:39:39.635Z,1002.05
2017-12-08T01:40:33.714Z,1002.03
2017-12-08T01:40:34.288Z,1002.03
2017-12-08T01:40:34.887Z,1002.03
2017-12-08T01:40:35.486Z,1002.07
2017-12-08T01:40:36.092Z,1002.09
2017-12-08T01:40:36.686Z,1002.02
2017-12-08T01:40:37.285Z,1002.02
2017-12-08T01:41:31.344Z,1002.06
2017-12-08T01:41:31.940Z,1002.05
2017-12-08T01:41:32.540Z,1002.09
2017-12-08T01:41:33.140Z,1002.06
2017-12-08T01:41:33.741Z,1002.06
2017-12-08T01:41:34.340Z,1002.05
2017-12-08T01:41:34.939Z,1002.05
2017-12-08T01:42:28.995Z,1002.05
2017-12-08T01:42:29.591Z,1002.05
2017-12-08T01:42:30.191Z,1002.05
2017-12-08T01:42:30.792Z,1002.03
2017-12-08T01:42:31.390Z,1002.05
2017-12-08T01:42:31.992Z,1002.05
2017-12-08T01:42:32.598Z,1002.07
2017-12-08T01:43:26.647Z,1002.05
2017-12-08T01:43:27.243Z,1002.04
2017-12-08T01:43:27.845Z,1002.04
2017-12-08T01:43:28.443Z,1002.07
2017-12-08T01:43:29.044Z,1002.05
2017-12-08T01:43:29.644Z,1002.04
2017-12-08T01:43:30.243Z,1002.05
2017-12-08T01:44:24.300Z,1002.02
2017-12-08T01:44:24.897Z,1002.03
2017-12-08T01:44:25.496Z,1002.03
2017-12-08T01:44:26.097Z,1002.04
2017-12-08T01:44:26.706Z,1002.03
2017-12-08T01:44:27.321Z,1002.03
2017-12-08T01:44:27.900Z,1002.03
2017-12-08T01:45:21.951Z,1002.04
2017-12-08T01:45:22.548Z,1002.08
2017-12-08T01:45:23.149Z,1002.08
2017-12-08T01:45:23.748Z,1002.06
2017-12-08T01:45:24.347Z,1002.07
2017-12-08T01:45:24.946Z,1002.09
2017-12-08T01:45:25.547Z,1002.10
2017-12-08T01:46:19.626Z,1002.10
2017-12-08T01:46:20.199Z,1002.10
2017-12-08T01:46:20.800Z,1002.10
2017-12-08T01:46:21.400Z,1002.10
2017-12-08T01:46:21.999Z,1002.10
2017-12-08T01:46:22.598Z,1002.09
2017-12-08T01:46:23.199Z,1002.09
2017-12-08T01:47:17.255Z,1002.14
2017-12-08T01:47:17.852Z,1002.10
2017-12-08T01:47:18.456Z,1002.10
2017-12-08T01:47:19.050Z,1002.12
2017-12-08T01:47:19.651Z,1002.12
2017-12-08T01:47:20.251Z,1002.08
2017-12-08T01:47:20.850Z,1002.07
2017-12-08T01:48:14.908Z,1002.12
2017-12-08T01:48:15.502Z,1002.09
2017-12-08T01:48:16.102Z,1002.09
2017-12-08T01:48:16.702Z,1002.08
2017-12-08T01:48:17.302Z,1002.10
2017-12-08T01:48:17.902Z,1002.09
2017-12-08T01:48:18.502Z,1002.08
2017-12-08T01:49:12.560Z,1002.15
2017-12-08T01:49:13.155Z,1002.16
2017-12-08T01:49:13.755Z,1002.13
2017-12-08T01:49:14.355Z,1002.16
2017-12-08T01:49:14.955Z,1002.15
2017-12-08T01:49:15.554Z,1002.16
2017-12-08T01:49:16.154Z,1002.15
2017-12-08T01:50:10.209Z,1002.10
2017-12-08T01:50:10.807Z,1002.09
2017-12-08T01:50:11.407Z,1002.11
2017-12-08T01:50:12.006Z,1002.09
2017-12-08T01:50:12.606Z,1002.11
2017-12-08T01:50:13.206Z,1002.10
2017-12-08T01:50:13.809Z,1002.08
2017-12-08T01:51:07.862Z,1002.10
2017-12-08T01:51:08.459Z,1002.14
2017-12-08T01:51:09.057Z,1002.10
2017-12-08T01:51:09.658Z,1002.11
2017-12-08T01:51:10.257Z,1002.09
2017-12-08T01:51:10.858Z,1002.12
2017-12-08T01:51:11.456Z,1002.11
2017-12-08T01:52:05.535Z,1002.09
2017-12-08T01:52:06.110Z,1002.10
2017-12-08T01:52:06.710Z,1002.13
2017-12-08T01:52:07.310Z,1002.07
2017-12-08T01:52:07.910Z,1002.09
2017-12-08T01:52:08.509Z,1002.04
2017-12-08T01:52:09.109Z,1002.08
2017-12-08T01:53:03.164Z,1002.11
2017-12-08T01:53:03.762Z,1002.13
2017-12-08T01:53:04.362Z,1002.10
2017-12-08T01:53:04.963Z,1002.14
2017-12-08T01:53:05.562Z,1002.09
2017-12-08T01:53:06.161Z,1002.13
2017-12-08T01:53:06.761Z,1002.13
2017-12-08T01:54:00.817Z,1002.15
2017-12-08T01:54:01.414Z,1002.17
2017-12-08T01:54:02.014Z,1002.16
2017-12-08T01:54:02.613Z,1002.16
2017-12-08T01:54:03.215Z,1002.13
2017-12-08T01:54:03.813Z,1002.16
2017-12-08T01:54:04.423Z,1002.15
2017-12-08T01:54:58.468Z,1002.15
2017-12-08T01:54:59.066Z,1002.16
2017-12-08T01:54:59.667Z,1002.15
2017-12-08T01:55:00.265Z,1002.13
2017-12-08T01:55:00.864Z,1002.12
2017-12-08T01:55:01.465Z,1002.14
2017-12-08T01:55:02.064Z,1002.12
2017-12-08T01:55:55.608Z,1002.16
2017-12-08T01:55:56.209Z,1002.11
2017-12-08T01:55:56.806Z,1002.12
2017-12-08T01:55:57.406Z,1002.11
2017-12-08T01:55:58.006Z,1002.12
2017-12-08T01:55:58.605Z,1002.11
2017-12-08T01:55:59.206Z,1002.11
2017-12-08T01:55:59.805Z,1002.09
2017-12-08T01:56:53.803Z,1002.04
2017-12-08T01:56:54.373Z,1002.11
2017-12-08T01:56:54.968Z,1002.10
2017-12-08T01:56:55.568Z,1002.09
2017-12-08T01:56:56.169Z,1002.09
2017-12-08T01:56:56.767Z,1002.09
2017-12-08T01:56:57.369Z,1002.14
2017-12-08T01:58:11.391Z,1002.04
2017-12-08T01:58:11.989Z,1002.06
2017-12-08T01:58:12.588Z,1002.06
2017-12-08T01:58:13.189Z,1002.07
2017-12-08T01:58:13.788Z,1002.08
2017-12-08T01:58:14.388Z,1002.08
2017-12-08T01:58:14.991Z,1002.10
2017-12-08T01:59:09.042Z,1002.08
2017-12-08T01:59:09.639Z,1002.05
2017-12-08T01:59:10.240Z,1002.04
2017-12-08T01:59:10.840Z,1002.05
2017-12-08T01:59:11.440Z,1002.06
2017-12-08T01:59:12.042Z,1002.03
2017-12-08T01:59:12.640Z,1002.06
2017-12-08T02:00:06.184Z,1002.10
2017-12-08T02:00:06.780Z,1002.05
2017-12-08T02:00:07.382Z,1002.04
2017-12-08T02:00:07.982Z,1002.02
2017-12-08T02:00:08.580Z,1001.97
2017-12-08T02:00:09.181Z,1002.01
2017-12-08T02:00:09.783Z,1002.04
2017-12-08T02:00:10.380Z,1002.04
2017-12-08T02:01:04.350Z,1002.10
2017-12-08T02:01:04.949Z,1002.06
2017-12-08T02:01:05.543Z,1002.05
2017-12-08T02:01:06.145Z,1002.10
2017-12-08T02:01:06.744Z,1002.04
2017-12-08T02:01:07.342Z,1002.03
2017-12-08T02:01:07.944Z,1002.06
2017-12-08T02:02:22.005Z,1002.08
2017-12-08T02:02:22.564Z,1002.06
2017-12-08T02:02:23.164Z,1002.09
2017-12-08T02:02:23.763Z,1002.06
2017-12-08T02:02:24.363Z,1002.07
2017-12-08T02:02:24.963Z,1002.10
2017-12-08T02:02:25.565Z,1002.08
2017-12-08T02:03:19.618Z,1002.10
2017-12-08T02:03:20.216Z,1002.09
2017-12-08T02:03:20.824Z,1002.10
2017-12-08T02:03:21.415Z,1002.12
2017-12-08T02:03:22.016Z,1002.10
2017-12-08T02:03:23.592Z,1002.08
2017-12-08T02:04:18.092Z,1002.09
2017-12-08T02:04:18.685Z,1002.11
2017-12-08T02:04:19.285Z,1002.13
2017-12-08T02:04:19.884Z,1002.14
2017-12-08T02:04:20.484Z,1002.12
2017-12-08T02:04:21.084Z,1002.11
2017-12-08T02:04:21.686Z,1002.10
2017-12-08T02:05:15.741Z,1002.08
2017-12-08T02:05:16.338Z,1002.07
2017-12-08T02:05:16.938Z,1002.08
2017-12-08T02:05:17.537Z,1002.07
2017-12-08T02:05:18.144Z,1002.06
2017-12-08T02:05:18.738Z,1002.05
2017-12-08T02:05:19.337Z,1002.09
2017-12-08T02:06:13.393Z,1002.13
2017-12-08T02:06:13.989Z,1002.12
2017-12-08T02:06:14.588Z,1002.13
2017-12-08T02:06:15.189Z,1002.11
2017-12-08T02:06:15.789Z,1002.10
2017-12-08T02:06:16.388Z,1002.09
2017-12-08T02:06:16.988Z,1002.14
2017-12-08T02:07:11.044Z,1002.17
2017-12-08T02:07:11.640Z,1002.13
2017-12-08T02:07:12.241Z,1002.13
2017-12-08T02:07:12.841Z,1002.12
2017-12-08T02:07:13.440Z,1002.12
2017-12-08T02:07:14.040Z,1002.10
2017-12-08T02:07:14.639Z,1002.12
2017-12-08T02:08:08.717Z,1002.14
2017-12-08T02:08:09.295Z,1002.12
2017-12-08T02:08:09.893Z,1002.11
2017-12-08T02:08:10.499Z,1002.14
2017-12-08T02:08:11.092Z,1002.12
2017-12-08T02:08:11.691Z,1002.10
2017-12-08T02:08:12.292Z,1002.12
2017-12-08T02:09:06.349Z,1002.09
2017-12-08T02:09:06.945Z,1002.13
2017-12-08T02:09:07.544Z,1002.12
2017-12-08T02:09:08.144Z,1002.12
2017-12-08T02:09:08.743Z,1002.10
2017-12-08T02:09:09.344Z,1002.10
2017-12-08T02:09:09.945Z,1002.15
2017-12-08T02:10:04.000Z,1002.11
2017-12-08T02:10:04.601Z,1002.11
2017-12-08T02:10:05.196Z,1002.12
2017-12-08T02:10:05.798Z,1002.15
2017-12-08T02:10:06.396Z,1002.10
2017-12-08T02:10:06.995Z,1002.10
2017-12-08T02:10:07.595Z,1002.11
2017-12-08T02:11:01.659Z,1002.15
2017-12-08T02:11:02.247Z,1002.12
2017-12-08T02:11:02.847Z,1002.14
2017-12-08T02:11:03.448Z,1002.15
2017-12-08T02:11:04.048Z,1002.12
2017-12-08T02:11:04.646Z,1002.12
2017-12-08T02:11:05.246Z,1002.15
2017-12-08T02:11:59.303Z,1002.08
2017-12-08T02:11:59.899Z,1002.15
2017-12-08T02:12:00.507Z,1002.13
2017-12-08T02:12:01.100Z,1002.12
2017-12-08T02:12:01.698Z,1002.12
2017-12-08T02:12:02.305Z,1002.09
2017-12-08T02:12:02.898Z,1002.05
2017-12-08T02:12:56.984Z,1002.10
2017-12-08T02:12:57.551Z,1002.11
2017-12-08T02:12:58.151Z,1002.10
2017-12-08T02:12:58.751Z,1002.12
2017-12-08T02:12:59.352Z,1002.12
2017-12-08T02:12:59.950Z,1002.13
2017-12-08T02:13:00.550Z,1002.14
2017-12-08T02:13:54.605Z,1002.09
2017-12-08T02:13:55.202Z,1002.09
2017-12-08T02:13:55.801Z,1002.08
2017-12-08T02:13:56.402Z,1002.09
2017-12-08T02:13:57.002Z,1002.09
2017-12-08T02:13:57.601Z,1002.11
2017-12-08T02:13:58.201Z,1002.09
2017-12-08T02:14:52.257Z,1002.05
2017-12-08T02:14:52.855Z,1002.07
2017-12-08T02:14:53.454Z,1002.05
2017-12-08T02:14:54.054Z,1002.03
2017-12-08T02:14:54.653Z,1002.05
2017-12-08T02:14:55.252Z,1002.07
2017-12-08T02:14:55.854Z,1002.08
2017-12-08T02:15:49.907Z,1002.03
2017-12-08T02:15:50.507Z,1002.04
2017-12-08T02:15:51.116Z,1002.05
2017-12-08T02:15:51.706Z,1002.05
2017-12-08T02:15:52.305Z,1002.03
2017-12-08T02:15:52.906Z,1002.02
2017-12-08T02:15:53.506Z,1002.01
2017-12-08T02:16:47.560Z,1002.08
2017-12-08T02:16:48.158Z,1002.05
2017-12-08T02:16:48.757Z,1002.05
2017-12-08T02:16:49.357Z,1002.06
2017-12-08T02:16:49.959Z,1002.11
2017-12-08T02:16:50.557Z,1002.06
2017-12-08T02:16:51.156Z,1002.03
2017-12-08T02:17:45.216Z,1002.06
2017-12-08T02:17:45.809Z,1002.04
2017-12-08T02:17:46.408Z,1002.05
2017-12-08T02:17:47.010Z,1002.05
2017-12-08T02:17:47.619Z,1002.07
2017-12-08T02:17:48.209Z,1002.07
2017-12-08T02:17:48.808Z,1002.07
2017-12-08T02:18:42.886Z,1002.11
2017-12-08T02:18:43.461Z,1002.09
2017-12-08T02:18:44.061Z,1002.11
2017-12-08T02:18:44.661Z,1002.08
2017-12-08T02:18:45.261Z,1002.13
2017-12-08T02:18:45.859Z,1002.14
2017-12-08T02:18:46.484Z,1002.12
2017-12-08T02:19:40.514Z,1002.07
2017-12-08T02:19:41.113Z,1002.03
2017-12-08T02:19:41.713Z,1002.06
2017-12-08T02:19:42.312Z,1002.10
2017-12-08T02:19:42.911Z,1002.12
2017-12-08T02:19:43.511Z,1002.11
2017-12-08T02:19:44.112Z,1002.13
2017-12-08T02:20:38.167Z,1002.15
2017-12-08T02:20:38.764Z,1002.13
2017-12-08T02:20:39.364Z,1002.12
2017-12-08T02:20:39.965Z,1002.09
2017-12-08T02:20:40.563Z,1002.11
2017-12-08T02:20:41.163Z,1002.12
2017-12-08T02:20:41.762Z,1002.11
2017-12-08T02:21:35.820Z,1002.13
2017-12-08T02:21:36.416Z,1002.13
2017-12-08T02:21:37.016Z,1002.10
2017-12-08T02:21:37.615Z,1002.12
2017-12-08T02:21:38.216Z,1002.11
2017-12-08T02:21:38.815Z,1002.13
2017-12-08T02:21:39.426Z,1002.10
2017-12-08T02:22:33.470Z,1002.11
2017-12-08T02:22:34.067Z,1002.09
2017-12-08T02:22:34.667Z,1002.11
2017-12-08T02:22:35.267Z,1002.13
2017-12-08T02:22:35.868Z,1002.15
2017-12-08T02:22:36.466Z,1002.11
2017-12-08T02:22:37.068Z,1002.12
2017-12-08T02:23:31.151Z,1002.16
2017-12-08T02:23:31.719Z,1002.15
2017-12-08T02:23:32.319Z,1002.16
2017-12-08T02:23:32.922Z,1002.14
2017-12-08T02:23:33.518Z,1002.17
2017-12-08T02:23:34.118Z,1002.16
2017-12-08T02:23:34.718Z,1002.16
2017-12-08T02:24:28.774Z,1002.09
2017-12-08T02:24:29.370Z,1002.11
2017-12-08T02:24:29.969Z,1002.09
2017-12-08T02:24:30.570Z,1002.10
2017-12-08T02:24:31.170Z,1002.13
2017-12-08T02:24:31.780Z,1002.14
2017-12-08T02:24:32.369Z,1002.12
2017-12-08T02:25:26.425Z,1002.21
2017-12-08T02:25:27.034Z,1002.19
2017-12-08T02:25:27.620Z,1002.21
2017-12-08T02:25:28.222Z,1002.20
2017-12-08T02:25:28.820Z,1002.19
2017-12-08T02:25:29.433Z,1002.21
2017-12-08T02:25:30.019Z,1002.21
2017-12-08T02:26:24.076Z,1002.18
2017-12-08T02:26:24.678Z,1002.17
2017-12-08T02:26:25.275Z,1002.15
2017-12-08T02:26:25.876Z,1002.17
2017-12-08T02:26:26.473Z,1002.17
2017-12-08T02:26:27.074Z,1002.18
2017-12-08T02:26:27.674Z,1002.16
2017-12-08T02:27:26.236Z,1002.15
2017-12-08T02:27:26.832Z,1002.17
2017-12-08T02:27:27.452Z,1002.15
2017-12-08T02:27:28.031Z,1002.16
2017-12-08T02:27:28.631Z,1002.13
2017-12-08T02:27:29.230Z,1002.15
2017-12-08T02:27:29.830Z,1002.15
2017-12-08T02:27:30.430Z,1002.16
2017-12-08T02:27:31.030Z,1002.16
2017-12-08T02:27:31.631Z,1002.14
2017-12-08T02:27:32.230Z,1002.14
2017-12-08T02:27:32.830Z,1002.15
2017-12-08T02:27:33.429Z,1002.17
2017-12-08T02:27:34.030Z,1002.14
2017-12-08T02:27:34.629Z,1002.19
2017-12-08T02:27:35.229Z,1002.16
2017-12-08T02:28:49.303Z,1002.08
2017-12-08T02:28:49.878Z,1002.16
2017-12-08T02:28:50.478Z,1002.13
2017-12-08T02:28:51.079Z,1002.10
2017-12-08T02:28:51.677Z,1002.12
2017-12-08T02:28:52.277Z,1002.11
2017-12-08T02:28:52.878Z,1002.09
2017-12-08T02:29:46.934Z,1002.13
2017-12-08T02:29:47.530Z,1002.17
2017-12-08T02:29:48.130Z,1002.19
2017-12-08T02:29:48.730Z,1002.12
2017-12-08T02:29:49.330Z,1002.14
2017-12-08T02:29:49.930Z,1002.15
2017-12-08T02:29:50.529Z,1002.17
2017-12-08T02:30:44.585Z,1002.14
2017-12-08T02:30:45.180Z,1002.10
2017-12-08T02:30:45.781Z,1002.12
2017-12-08T02:30:46.381Z,1002.12
2017-12-08T02:30:46.981Z,1002.14
2017-12-08T02:30:47.580Z,1002.12
2017-12-08T02:30:48.181Z,1002.12
2017-12-08T02:31:42.236Z,1002.16
2017-12-08T02:31:42.834Z,1002.16
2017-12-08T02:31:43.434Z,1002.16
2017-12-08T02:31:44.033Z,1002.18
2017-12-08T02:31:44.633Z,1002.15
2017-12-08T02:31:45.233Z,1002.13
2017-12-08T02:31:45.833Z,1002.14
2017-12-08T02:32:39.889Z,1002.15
2017-12-08T02:32:40.485Z,1002.14
2017-12-08T02:32:41.085Z,1002.14
2017-12-08T02:32:41.684Z,1002.13
2017-12-08T02:32:42.285Z,1002.14
2017-12-08T02:32:42.885Z,1002.16
2017-12-08T02:32:43.485Z,1002.14
2017-12-08T02:33:37.567Z,1002.14
2017-12-08T02:33:38.139Z,1002.13
2017-12-08T02:33:38.736Z,1002.12
2017-12-08T02:33:39.336Z,1002.07
2017-12-08T02:33:39.936Z,1002.11
2017-12-08T02:33:40.535Z,1002.11
2017-12-08T02:33:41.135Z,1002.09
2017-12-08T02:52:34.820Z,1002.30
2017-12-08T02:52:35.396Z,1002.28
2017-12-08T02:52:35.993Z,1002.32
2017-12-08T02:52:36.593Z,1002.31
2017-12-08T02:52:37.193Z,1002.28
2017-12-08T02:52:37.794Z,1002.26
2017-12-08T02:52:38.392Z,1002.28
2017-12-08T02:53:32.450Z,1002.34
2017-12-08T02:53:33.047Z,1002.32
2017-12-08T02:53:33.646Z,1002.29
2017-12-08T02:53:34.247Z,1002.32
2017-12-08T02:53:34.846Z,1002.30
2017-12-08T02:53:35.446Z,1002.33
2017-12-08T02:53:36.046Z,1002.36
2017-12-08T02:54:30.102Z,1002.32
2017-12-08T02:54:30.699Z,1002.30
2017-12-08T02:54:31.299Z,1002.29
2017-12-08T02:54:31.905Z,1002.26
2017-12-08T02:54:32.499Z,1002.26
2017-12-08T02:54:33.098Z,1002.29
2017-12-08T02:54:33.699Z,1002.27
2017-12-08T02:55:27.760Z,1002.31
2017-12-08T02:55:28.352Z,1002.31
2017-12-08T02:55:28.950Z,1002.31
2017-12-08T02:55:29.550Z,1002.35
2017-12-08T02:55:30.153Z,1002.28
2017-12-08T02:55:30.751Z,1002.32
2017-12-08T02:55:31.355Z,1002.29
2017-12-08T02:56:25.440Z,1002.36
2017-12-08T02:56:26.004Z,1002.35
2017-12-08T02:56:26.603Z,1002.35
2017-12-08T02:56:27.202Z,1002.34
2017-12-08T02:56:27.825Z,1002.35
2017-12-08T02:56:28.403Z,1002.35
2017-12-08T02:56:29.003Z,1002.37
2017-12-08T02:57:23.059Z,1002.37
2017-12-08T02:57:23.656Z,1002.36
2017-12-08T02:57:24.260Z,1002.34
2017-12-08T02:57:24.856Z,1002.35
2017-12-08T02:57:25.456Z,1002.38
2017-12-08T02:57:26.055Z,1002.33
2017-12-08T02:57:26.656Z,1002.32
2017-12-08T02:58:20.710Z,1002.33
2017-12-08T02:58:21.308Z,1002.31
2017-12-08T02:58:21.907Z,1002.37
2017-12-08T02:58:22.507Z,1002.32
2017-12-08T02:58:23.107Z,1002.30
2017-12-08T02:58:23.708Z,1002.34
2017-12-08T02:58:24.307Z,1002.34
2017-12-08T02:59:18.362Z,1002.28
2017-12-08T02:59:18.960Z,1002.30
2017-12-08T02:59:19.559Z,1002.25
2017-12-08T02:59:20.160Z,1002.27
2017-12-08T02:59:20.759Z,1002.30
2017-12-08T02:59:21.359Z,1002.29
2017-12-08T02:59:21.959Z,1002.29
2017-12-08T03:00:15.504Z,1002.30
2017-12-08T03:00:16.099Z,1002.26
2017-12-08T03:00:16.699Z,1002.30
2017-12-08T03:00:17.300Z,1002.28
2017-12-08T03:00:17.900Z,1002.32
2017-12-08T03:00:18.499Z,1002.29
2017-12-08T03:00:19.099Z,1002.30
2017-12-08T03:00:19.700Z,1002.28
2017-12-08T03:01:13.666Z,1002.28
2017-12-08T03:01:14.267Z,1002.24
2017-12-08T03:01:14.863Z,1002.26
2017-12-08T03:01:15.463Z,1002.27
2017-12-08T03:01:16.062Z,1002.27
2017-12-08T03:01:16.663Z,1002.32
2017-12-08T03:01:17.264Z,1002.25
2017-12-08T03:02:31.307Z,1002.32
2017-12-08T03:02:31.883Z,1002.31
2017-12-08T03:02:32.481Z,1002.30
2017-12-08T03:02:33.083Z,1002.31
2017-12-08T03:02:33.683Z,1002.32
2017-12-08T03:02:34.281Z,1002.31
2017-12-08T03:02:34.882Z,1002.32
2017-12-08T03:03:28.939Z,1002.26
2017-12-08T03:03:29.535Z,1002.25
2017-12-08T03:03:30.135Z,1002.28
2017-12-08T03:03:30.735Z,1002.27
2017-12-08T03:03:31.335Z,1002.27
2017-12-08T03:03:31.934Z,1002.27
2017-12-08T03:03:32.535Z,1002.26
2017-12-08T03:04:26.590Z,1002.34
2017-12-08T03:04:27.187Z,1002.32
2017-12-08T03:04:27.787Z,1002.33
2017-12-08T03:04:28.386Z,1002.32
2017-12-08T03:04:28.986Z,1002.36
2017-12-08T03:04:29.586Z,1002.34
2017-12-08T03:04:30.185Z,1002.32
2017-12-08T03:05:24.241Z,1002.22
2017-12-08T03:05:24.839Z,1002.21
2017-12-08T03:05:25.438Z,1002.15
2017-12-08T03:05:26.038Z,1002.20
2017-12-08T03:05:26.642Z,1002.24
2017-12-08T03:05:27.236Z,1002.24
2017-12-08T03:05:27.837Z,1002.26
2017-12-08T03:06:21.893Z,1002.21
2017-12-08T03:06:22.491Z,1002.20
2017-12-08T03:06:23.090Z,1002.14
2017-12-08T03:06:23.691Z,1002.12
2017-12-08T03:06:24.292Z,1002.17
2017-12-08T03:06:24.889Z,1002.15
2017-12-08T03:06:25.492Z,1002.16
2017-12-08T03:07:19.585Z,1002.18
2017-12-08T03:07:20.147Z,1002.18
2017-12-08T03:07:20.742Z,1002.20
2017-12-08T03:07:21.342Z,1002.20
2017-12-08T03:07:21.942Z,1002.21
2017-12-08T03:07:22.541Z,1002.18
2017-12-08T03:07:23.142Z,1002.19
2017-12-08T03:08:17.196Z,1002.17
2017-12-08T03:08:17.795Z,1002.17
2017-12-08T03:08:18.394Z,1002.18
2017-12-08T03:08:18.994Z,1002.18
2017-12-08T03:08:19.594Z,1002.19
2017-12-08T03:08:20.193Z,1002.20
2017-12-08T03:08:20.793Z,1002.20
2017-12-08T03:09:14.849Z,1002.22
2017-12-08T03:09:15.449Z,1002.20
2017-12-08T03:09:16.045Z,1002.22
2017-12-08T03:09:16.644Z,1002.20
2017-12-08T03:09:17.245Z,1002.18
2017-12-08T03:09:17.844Z,1002.23
2017-12-08T03:09:18.444Z,1002.15
2017-12-08T03:10:12.500Z,1002.16
2017-12-08T03:10:13.098Z,1002.17
2017-12-08T03:10:13.697Z,1002.18
2017-12-08T03:10:14.299Z,1002.19
2017-12-08T03:10:14.897Z,1002.19
2017-12-08T03:10:15.497Z,1002.21
2017-12-08T03:10:16.097Z,1002.16
2017-12-08T03:11:10.152Z,1002.17
2017-12-08T03:11:10.749Z,1002.15
2017-12-08T03:11:11.348Z,1002.15
2017-12-08T03:11:11.954Z,1002.14
2017-12-08T03:11:12.548Z,1002.17
2017-12-08T03:11:13.148Z,1002.14
2017-12-08T03:11:13.748Z,1002.14
2017-12-08T03:12:07.803Z,1002.14
2017-12-08T03:12:08.401Z,1002.15
2017-12-08T03:12:09.003Z,1002.13
2017-12-08T03:12:09.599Z,1002.16
2017-12-08T03:12:10.199Z,1002.13
2017-12-08T03:12:10.800Z,1002.13
2017-12-08T03:12:11.400Z,1002.12
2017-12-08T03:13:05.481Z,1002.11
2017-12-08T03:13:06.053Z,1002.14
2017-12-08T03:13:06.652Z,1002.13
2017-12-08T03:13:07.252Z,1002.11
2017-12-08T03:13:07.855Z,1002.10
2017-12-08T03:13:08.451Z,1002.12
2017-12-08T03:13:09.052Z,1002.13
2017-12-08T03:14:03.107Z,1002.11
2017-12-08T03:14:03.703Z,1002.10
2017-12-08T03:14:04.303Z,1002.07
2017-12-08T03:14:04.904Z,1002.11
2017-12-08T03:14:05.504Z,1002.11
2017-12-08T03:14:06.102Z,1002.09
2017-12-08T03:14:06.704Z,1002.09
2017-12-08T03:15:00.758Z,1002.10
2017-12-08T03:15:01.355Z,1002.09
2017-12-08T03:15:01.956Z,1002.07
2017-12-08T03:15:02.555Z,1002.06
2017-12-08T03:15:03.155Z,1002.12
2017-12-08T03:15:03.755Z,1002.07
2017-12-08T03:15:04.354Z,1002.08
2017-12-08T03:15:58.409Z,1002.08
2017-12-08T03:15:59.008Z,1002.09
2017-12-08T03:15:59.606Z,1002.06
2017-12-08T03:16:00.206Z,1002.09
2017-12-08T03:16:00.806Z,1002.12
2017-12-08T03:16:01.409Z,1002.10
2017-12-08T03:16:02.006Z,1002.11
2017-12-08T03:16:56.062Z,1002.15
2017-12-08T03:16:56.659Z,1002.14
2017-12-08T03:16:57.257Z,1002.15
2017-12-08T03:16:57.858Z,1002.13
2017-12-08T03:16:58.460Z,1002.14
2017-12-08T03:16:59.058Z,1002.13
2017-12-08T03:16:59.658Z,1002.13
2017-12-08T03:17:53.737Z,1002.10
2017-12-08T03:17:54.311Z,1002.09
2017-12-08T03:17:54.913Z,1002.10
2017-12-08T03:17:55.510Z,1002.09
2017-12-08T03:17:56.110Z,1002.09
2017-12-08T03:17:56.708Z,1002.09
2017-12-08T03:17:57.309Z,1002.07
2017-12-08T03:18:51.363Z,1002.08
2017-12-08T03:18:51.961Z,1002.09
2017-12-08T03:18:52.562Z,1002.09
2017-12-08T03:18:53.161Z,1002.10
2017-12-08T03:18:53.761Z,1002.09
2017-12-08T03:18:54.361Z,1002.11
2017-12-08T03:18:54.961Z,1002.10
2017-12-08T03:19:49.016Z,1002.06
2017-12-08T03:19:49.614Z,1002.08
2017-12-08T03:19:50.213Z,1002.08
2017-12-08T03:19:50.813Z,1002.10
2017-12-08T03:19:51.413Z,1002.11
2017-12-08T03:19:52.015Z,1002.12
2017-12-08T03:19:52.610Z,1002.11
2017-12-08T03:20:46.672Z,1002.13
2017-12-08T03:20:47.268Z,1002.08
2017-12-08T03:20:47.868Z,1002.10
2017-12-08T03:20:48.468Z,1002.10
2017-12-08T03:20:49.068Z,1002.12
2017-12-08T03:20:49.667Z,1002.09
2017-12-08T03:20:50.267Z,1002.08
2017-12-08T03:21:43.810Z,1002.13
2017-12-08T03:21:44.405Z,1002.10
2017-12-08T03:21:45.006Z,1002.10
2017-12-08T03:21:45.605Z,1002.10
2017-12-08T03:21:46.205Z,1002.07
2017-12-08T03:21:46.806Z,1002.08
2017-12-08T03:21:47.405Z,1002.10
2017-12-08T03:21:48.007Z,1002.10
2017-12-08T03:22:41.972Z,1002.06
2017-12-08T03:22:42.574Z,1002.08
2017-12-08T03:22:43.168Z,1002.11
2017-12-08T03:22:43.768Z,1002.07
2017-12-08T03:22:44.367Z,1002.10
2017-12-08T03:22:44.967Z,1002.07
2017-12-08T03:22:45.568Z,1002.10
2017-12-08T03:23:59.623Z,1002.13
2017-12-08T03:24:00.187Z,1002.11
2017-12-08T03:24:00.788Z,1002.10
2017-12-08T03:24:01.388Z,1002.07
2017-12-08T03:24:01.987Z,1002.09
2017-12-08T03:24:02.587Z,1002.09
2017-12-08T03:24:03.188Z,1002.10
2017-12-08T03:24:57.243Z,1002.02
2017-12-08T03:24:57.839Z,1002.04
2017-12-08T03:24:58.438Z,1002.04
2017-12-08T03:24:59.040Z,1002.07
2017-12-08T03:24:59.639Z,1002.04
2017-12-08T03:25:00.240Z,1002.07
2017-12-08T03:25:00.839Z,1002.07
2017-12-08T03:25:54.895Z,1002.06
2017-12-08T03:25:55.491Z,1002.02
2017-12-08T03:25:56.091Z,1002.04
2017-12-08T03:25:56.691Z,1002.05
2017-12-08T03:25:57.295Z,1002.01
2017-12-08T03:25:57.892Z,1002.05
2017-12-08T03:25:58.490Z,1002.04
2017-12-08T03:26:52.546Z,1002.06
2017-12-08T03:26:53.144Z,1002.05
2017-12-08T03:26:53.743Z,1002.03
2017-12-08T03:26:54.343Z,1002.01
2017-12-08T03:26:54.943Z,1002.04
2017-12-08T03:26:55.542Z,1002.03
2017-12-08T03:26:56.142Z,1002.03
2017-12-08T03:27:50.197Z,1002.03
2017-12-08T03:27:50.794Z,1002.02
2017-12-08T03:27:51.395Z,1002.03
2017-12-08T03:27:51.994Z,1001.99
2017-12-08T03:27:52.595Z,1002.02
2017-12-08T03:27:53.194Z,1002.01
2017-12-08T03:27:53.795Z,1002.01
2017-12-08T03:28:47.849Z,1002.04
2017-12-08T03:28:48.448Z,1001.96
2017-12-08T03:28:49.046Z,1002.02
2017-12-08T03:28:49.647Z,1002.00
2017-12-08T03:28:50.246Z,1002.00
2017-12-08T03:28:50.846Z,1002.02
2017-12-08T03:28:51.446Z,1002.00
2017-12-08T03:29:45.523Z,1001.96
2017-12-08T03:29:46.099Z,1001.90
2017-12-08T03:29:46.697Z,1001.91
2017-12-08T03:29:47.298Z,1001.94
2017-12-08T03:29:47.899Z,1001.97
2017-12-08T03:29:48.498Z,1001.98
2017-12-08T03:29:49.099Z,1001.95
2017-12-08T03:30:43.153Z,1001.95
2017-12-08T03:30:43.750Z,1001.99
2017-12-08T03:30:44.351Z,1001.98
2017-12-08T03:30:44.950Z,1001.94
2017-12-08T03:30:45.551Z,1001.96
2017-12-08T03:30:46.156Z,1001.99
2017-12-08T03:30:46.750Z,1001.99
2017-12-08T03:31:40.803Z,1001.97
2017-12-08T03:31:41.401Z,1001.98
2017-12-08T03:31:42.001Z,1001.98
2017-12-08T03:31:42.601Z,1001.98
2017-12-08T03:31:43.205Z,1002.01
2017-12-08T03:31:43.800Z,1002.02
2017-12-08T03:31:44.400Z,1001.95
2017-12-08T03:32:37.944Z,1002.01
2017-12-08T03:32:38.542Z,1002.01
2017-12-08T03:32:39.144Z,1002.04
2017-12-08T03:32:39.742Z,1002.00
2017-12-08T03:32:40.341Z,1002.06
2017-12-08T03:32:40.941Z,1002.03
2017-12-08T03:32:41.541Z,1002.01
2017-12-08T03:32:42.141Z,1001.98
2017-12-08T03:33:36.109Z,1001.99
2017-12-08T03:33:36.711Z,1002.00
2017-12-08T03:33:37.304Z,1002.01
2017-12-08T03:33:37.904Z,1001.97
2017-12-08T03:33:38.509Z,1001.97
2017-12-08T03:33:39.104Z,1002.00
2017-12-08T03:33:39.704Z,1001.99
2017-12-08T03:34:53.238Z,1001.99
2017-12-08T03:34:53.815Z,1002.00
2017-12-08T03:34:54.414Z,1002.01
2017-12-08T03:34:55.013Z,1001.94
2017-12-08T03:34:55.614Z,1001.98
2017-12-08T03:34:56.213Z,1001.98